Time;durP1;ratioP1;P1;durP2;ratioP2;P2;SDS_P1;SDS_P2;PMS_P1;PMS_P2;Temp;Humidity;BMP_temperature;BMP_pressure;BME280_temperature;BME280_humidity;BME280_pressure;Samples;Min_cycle;Max_cycle;Signal;HPM_P1;HPM_P2
2020/12/14 00:01:54;;;;;;;5.43;2.85;;;6.10;99.90;;;;;;5013426;28;20467;-66
2020/12/14 00:04:20;;;;;;;3.53;2.75;;;6.10;99.90;;;;;;5013234;28;20417;-66
2020/12/14 00:06:50;;;;;;;5.05;2.70;;;6.10;99.90;;;;;;5013178;28;20417;-66
2020/12/14 00:09:17;;;;;;;2.70;2.33;;;6.20;99.90;;;;;;5013596;28;20409;-66
2020/12/14 00:11:44;;;;;;;5.32;2.90;;;6.20;99.90;;;;;;5013185;28;20447;-66
2020/12/14 00:14:10;;;;;;;6.43;2.50;;;6.30;99.90;;;;;;5012445;28;20418;-65
2020/12/14 00:16:36;;;;;;;4.32;2.60;;;6.30;99.90;;;;;;5013249;28;20809;-67
2020/12/14 00:19:02;;;;;;;3.80;2.27;;;6.30;99.90;;;;;;5012790;28;20483;-66
2020/12/14 00:21:28;;;;;;;3.35;2.20;;;6.40;99.90;;;;;;5012952;28;20413;-66
2020/12/14 00:23:54;;;;;;;2.88;2.45;;;6.40;99.90;;;;;;5012964;28;20413;-66
2020/12/14 00:26:21;;;;;;;2.88;2.25;;;6.50;99.90;;;;;;5012642;28;20777;-66
2020/12/14 00:28:48;;;;;;;3.13;2.93;;;6.50;99.90;;;;;;5012605;28;20471;-66
2020/12/14 00:31:15;;;;;;;3.40;2.60;;;6.50;99.90;;;;;;5012820;28;20426;-67
2020/12/14 00:33:41;;;;;;;3.38;2.60;;;6.50;99.90;;;;;;5012743;28;20417;-65
2020/12/14 00:36:07;;;;;;;4.50;2.58;;;6.50;99.90;;;;;;5012595;28;20412;-66
2020/12/14 00:38:33;;;;;;;4.40;2.30;;;6.60;99.90;;;;;;5012322;28;20417;-65
2020/12/14 00:40:59;;;;;;;3.95;2.40;;;6.60;99.90;;;;;;5012601;28;20472;-66
2020/12/14 00:43:26;;;;;;;4.50;2.20;;;6.60;99.90;;;;;;5012256;28;20795;-65
2020/12/14 00:45:52;;;;;;;4.00;2.60;;;6.60;99.90;;;;;;5012700;28;20470;-67
2020/12/14 00:48:18;;;;;;;3.97;2.10;;;6.60;99.90;;;;;;5012451;28;20896;-66
2020/12/14 00:50:45;;;;;;;4.28;2.20;;;6.60;99.90;;;;;;5012647;28;20440;-66
2020/12/14 00:53:12;;;;;;;3.40;2.10;;;6.60;99.90;;;;;;5012695;28;20440;-66
2020/12/14 00:55:38;;;;;;;3.15;1.98;;;6.60;99.90;;;;;;5012552;28;20424;-66
2020/12/14 00:58:04;;;;;;;3.70;2.00;;;6.70;99.90;;;;;;5011408;28;20417;-66
2020/12/14 01:00:32;;;;;;;2.97;2.00;;;6.70;99.90;;;;;;5011890;28;20472;-66
2020/12/14 01:02:58;;;;;;;3.15;2.10;;;6.70;99.90;;;;;;5011929;28;20896;-66
2020/12/14 01:05:24;;;;;;;3.93;2.40;;;6.70;99.90;;;;;;5012390;28;20500;-65
2020/12/14 01:07:50;;;;;;;4.47;2.30;;;6.70;99.90;;;;;;5012589;28;20823;-66
2020/12/14 01:10:16;;;;;;;3.55;2.80;;;6.70;99.90;;;;;;5012782;28;20413;-66
2020/12/14 01:12:43;;;;;;;3.87;1.97;;;6.60;99.90;;;;;;5012255;28;20496;-66
2020/12/14 01:15:09;;;;;;;6.30;2.03;;;6.60;99.90;;;;;;5012224;28;20770;-66
2020/12/14 01:17:36;;;;;;;3.35;2.47;;;6.60;99.90;;;;;;5012063;28;20417;-66
2020/12/14 01:20:02;;;;;;;4.47;2.05;;;6.70;99.90;;;;;;5011935;28;20479;-66
2020/12/14 01:22:28;;;;;;;3.90;2.08;;;6.70;99.90;;;;;;5011848;28;20543;-66
2020/12/14 01:24:54;;;;;;;3.75;2.42;;;6.80;99.90;;;;;;5011471;28;20950;-66
2020/12/14 01:27:21;;;;;;;3.75;2.05;;;6.70;99.90;;;;;;5011905;28;20447;-66
2020/12/14 01:29:47;;;;;;;2.70;2.30;;;6.80;99.90;;;;;;5011712;28;20820;-66
2020/12/14 01:32:13;;;;;;;3.80;2.10;;;6.80;99.90;;;;;;5011775;28;20413;-66
2020/12/14 01:34:40;;;;;;;3.45;2.05;;;6.70;99.90;;;;;;5011635;28;20408;-66
2020/12/14 01:37:06;;;;;;;5.60;2.47;;;6.70;99.90;;;;;;5011710;28;20417;-66
2020/12/14 01:39:32;;;;;;;3.90;2.00;;;6.70;99.90;;;;;;5011442;28;20487;-65
2020/12/14 01:41:58;;;;;;;3.27;1.90;;;6.70;99.90;;;;;;5011573;28;20485;-67
2020/12/14 01:44:24;;;;;;;5.50;2.30;;;6.70;99.90;;;;;;5011272;28;20946;-67
2020/12/14 01:46:52;;;;;;;2.50;1.83;;;6.70;99.90;;;;;;5011563;28;20471;-66
2020/12/14 01:49:18;;;;;;;4.00;2.00;;;6.60;99.90;;;;;;5011432;28;20409;-66
2020/12/14 01:51:45;;;;;;;3.53;2.30;;;6.70;99.90;;;;;;5011581;28;20408;-67
2020/12/14 01:54:17;;;;;;;2.40;2.10;;;6.70;99.90;;;;;;5010975;28;20413;-66
2020/12/14 01:56:43;;;;;;;3.90;2.17;;;6.60;99.90;;;;;;5011931;28;20446;-66
2020/12/14 01:59:10;;;;;;;2.38;2.05;;;6.60;99.90;;;;;;5014125;28;20429;-66
2020/12/14 02:01:36;;;;;;;4.88;2.22;;;6.50;99.90;;;;;;5011208;28;20439;-66
2020/12/14 02:04:02;;;;;;;3.20;2.20;;;6.50;99.90;;;;;;5011394;28;20475;-66
2020/12/14 02:06:28;;;;;;;2.70;1.70;;;6.50;99.90;;;;;;5011385;28;20448;-66
2020/12/14 02:08:55;;;;;;;3.88;2.10;;;6.50;99.90;;;;;;5011442;28;20458;-66
2020/12/14 02:11:21;;;;;;;4.40;2.50;;;6.50;99.90;;;;;;5014832;28;20416;-64
2020/12/14 02:13:47;;;;;;;2.40;1.60;;;6.50;99.90;;;;;;5015202;28;20444;-65
2020/12/14 02:16:14;;;;;;;4.18;1.92;;;6.50;99.90;;;;;;5015244;28;20463;-65
2020/12/14 02:18:40;;;;;;;3.33;2.15;;;6.50;99.90;;;;;;5015333;28;20416;-66
2020/12/14 02:21:06;;;;;;;3.00;1.83;;;6.40;99.90;;;;;;5015253;28;20816;-65
2020/12/14 02:23:32;;;;;;;4.37;1.60;;;6.40;99.90;;;;;;5014737;28;20463;-67
2020/12/14 02:25:59;;;;;;;3.13;1.92;;;6.40;99.90;;;;;;5015142;28;20424;-66
2020/12/14 02:28:26;;;;;;;3.70;1.90;;;6.40;99.90;;;;;;5015304;28;20416;-66
2020/12/14 02:30:52;;;;;;;2.85;2.20;;;6.40;99.90;;;;;;5015016;28;20405;-66
2020/12/14 02:33:18;;;;;;;3.25;2.00;;;6.40;99.90;;;;;;5014903;28;20421;-65
2020/12/14 02:35:45;;;;;;;2.38;1.70;;;6.40;99.90;;;;;;5014566;28;20412;-66
2020/12/14 02:38:11;;;;;;;2.10;1.90;;;6.50;99.90;;;;;;5015095;28;20419;-66
2020/12/14 02:40:38;;;;;;;3.17;2.03;;;6.50;99.90;;;;;;5014896;28;20436;-67
2020/12/14 02:43:04;;;;;;;2.10;1.40;;;6.40;99.90;;;;;;5014665;28;20471;-66
2020/12/14 02:45:31;;;;;;;2.10;1.60;;;6.40;99.90;;;;;;5014922;28;20553;-66
2020/12/14 02:47:57;;;;;;;2.80;1.50;;;6.40;99.90;;;;;;5014659;28;20471;-66
2020/12/14 02:50:23;;;;;;;2.70;1.50;;;6.30;99.90;;;;;;5014571;28;20784;-66
2020/12/14 02:52:49;;;;;;;2.92;1.90;;;6.40;99.90;;;;;;5016143;28;20417;-65
2020/12/14 02:55:15;;;;;;;4.63;1.85;;;6.40;99.90;;;;;;5014602;28;20417;-66
2020/12/14 02:57:41;;;;;;;3.97;1.80;;;6.40;99.90;;;;;;5014579;28;20413;-66
2020/12/14 03:00:08;;;;;;;3.30;1.90;;;6.40;99.90;;;;;;5014191;28;20796;-66
2020/12/14 03:02:34;;;;;;;4.80;2.03;;;6.40;99.90;;;;;;5014370;28;20483;-66
2020/12/14 03:05:00;;;;;;;5.68;2.20;;;6.40;99.90;;;;;;5014207;28;20502;-66
2020/12/14 03:07:26;;;;;;;3.65;1.80;;;6.30;99.90;;;;;;5014298;28;20409;-66
2020/12/14 03:09:52;;;;;;;5.78;1.98;;;6.40;99.90;;;;;;5014801;28;20475;-66
2020/12/14 03:12:18;;;;;;;5.77;1.90;;;6.50;99.90;;;;;;5014091;28;20816;-64
2020/12/14 03:14:44;;;;;;;3.38;1.70;;;6.60;99.90;;;;;;5014034;28;20424;-67
2020/12/14 03:17:11;;;;;;;2.03;1.50;;;6.60;99.90;;;;;;5014238;28;21076;-65
2020/12/14 03:19:38;;;;;;;2.50;1.58;;;6.60;99.90;;;;;;5014270;28;20487;-66
2020/12/14 03:22:04;;;;;;;3.08;1.60;;;6.60;99.90;;;;;;5013105;28;20409;-66
2020/12/14 03:24:30;;;;;;;3.35;1.90;;;6.60;99.90;;;;;;5013912;28;20459;-66
2020/12/14 03:26:56;;;;;;;2.67;1.77;;;6.70;99.90;;;;;;5014143;28;20493;-66
2020/12/14 03:29:22;;;;;;;2.25;1.70;;;6.70;99.90;;;;;;5013970;28;20408;-66
2020/12/14 03:31:48;;;;;;;2.70;2.00;;;6.70;99.90;;;;;;5013957;28;20417;-65
2020/12/14 03:34:15;;;;;;;4.70;1.70;;;6.80;99.90;;;;;;5014192;28;20412;-66
2020/12/14 03:36:41;;;;;;;3.37;1.40;;;6.70;99.90;;;;;;5014135;28;20412;-65
2020/12/14 03:39:07;;;;;;;4.70;2.00;;;6.70;99.90;;;;;;5013556;28;20944;-65
2020/12/14 03:41:34;;;;;;;3.95;1.70;;;6.80;99.90;;;;;;5013435;28;20927;-65
2020/12/14 03:44:00;;;;;;;2.63;1.85;;;6.80;99.90;;;;;;5013370;28;20416;-65
2020/12/14 03:46:27;;;;;;;2.42;1.60;;;6.80;99.90;;;;;;5013538;28;20417;-65
2020/12/14 03:48:55;;;;;;;2.50;1.60;;;6.90;99.90;;;;;;5013185;28;20471;-65
2020/12/14 03:51:22;;;;;;;2.30;1.70;;;6.80;99.90;;;;;;5013759;28;20586;-65
2020/12/14 03:53:48;;;;;;;1.60;1.50;;;6.90;99.90;;;;;;5013332;28;20429;-65
2020/12/14 03:56:18;;;;;;;3.25;2.05;;;7.00;99.90;;;;;;5013507;28;20408;-65
2020/12/14 03:58:44;;;;;;;3.60;1.70;;;7.00;99.90;;;;;;5013282;28;20412;-65
2020/12/14 04:01:12;;;;;;;3.58;2.10;;;7.00;99.90;;;;;;5013092;28;20408;-65
2020/12/14 04:03:38;;;;;;;2.70;2.25;;;7.00;99.90;;;;;;5012998;28;20962;-65
2020/12/14 04:06:04;;;;;;;4.18;1.80;;;7.00;99.90;;;;;;5012917;28;20951;-65
2020/12/14 04:08:31;;;;;;;3.50;1.70;;;7.00;99.90;;;;;;5013264;28;20412;-65
2020/12/14 04:10:57;;;;;;;4.68;1.50;;;7.10;99.90;;;;;;5013181;28;20405;-65
2020/12/14 04:13:23;;;;;;;5.38;1.90;;;7.10;99.90;;;;;;5012775;28;20420;-65
2020/12/14 04:15:49;;;;;;;2.55;1.40;;;7.10;99.90;;;;;;5012709;28;20421;-65
2020/12/14 04:18:16;;;;;;;3.00;1.70;;;7.20;1.00;;;;;;5012775;28;20415;-65
2020/12/14 04:20:42;;;;;;;3.97;1.65;;;7.10;99.90;;;;;;5013027;28;20835;-65
2020/12/14 04:23:08;;;;;;;4.10;2.20;;;7.10;99.90;;;;;;5012961;28;20409;-65
2020/12/14 04:25:35;;;;;;;3.80;2.15;;;7.10;1.00;;;;;;5012723;28;20420;-65
2020/12/14 04:28:01;;;;;;;2.30;1.60;;;7.20;1.00;;;;;;5012795;28;20412;-65
2020/12/14 04:30:27;;;;;;;2.50;1.60;;;7.20;1.00;;;;;;5012661;28;20816;-65
2020/12/14 04:32:54;;;;;;;3.95;1.80;;;7.20;1.00;;;;;;5012559;28;20416;-65
2020/12/14 04:35:20;;;;;;;1.30;1.20;;;7.30;1.00;;;;;;5012802;28;20420;-65
2020/12/14 04:37:46;;;;;;;2.72;1.50;;;7.30;1.00;;;;;;5012591;28;20466;-65
2020/12/14 04:40:12;;;;;;;2.70;1.70;;;7.30;1.00;;;;;;5012597;28;20498;-65
2020/12/14 04:42:41;;;;;;;3.88;1.85;;;7.40;1.00;;;;;;5012313;28;20847;-65
2020/12/14 04:45:08;;;;;;;5.85;1.63;;;7.40;1.00;;;;;;5012315;28;20905;-65
2020/12/14 04:47:35;;;;;;;2.03;1.50;;;7.40;1.00;;;;;;5012181;28;20880;-65
2020/12/14 04:50:03;;;;;;;1.80;1.50;;;7.50;1.00;;;;;;5012595;28;20408;-65
2020/12/14 04:52:33;;;;;;;2.75;1.40;;;7.50;1.00;;;;;;5012446;28;20412;-65
2020/12/14 04:55:00;;;;;;;2.90;1.95;;;7.50;1.00;;;;;;5012073;28;20454;-65
2020/12/14 04:57:27;;;;;;;2.95;1.65;;;7.50;1.00;;;;;;5012186;28;20884;-65
2020/12/14 04:59:54;;;;;;;2.78;1.50;;;7.50;1.00;;;;;;5012274;28;20448;-65
2020/12/14 05:02:20;;;;;;;3.38;1.45;;;7.50;1.00;;;;;;5012342;28;20417;-65
2020/12/14 05:04:46;;;;;;;1.60;1.50;;;7.50;1.00;;;;;;5012140;28;20900;-65
2020/12/14 05:07:12;;;;;;;2.60;1.88;;;7.60;1.00;;;;;;5012729;28;20475;-65
2020/12/14 05:09:41;;;;;;;2.78;1.60;;;7.50;1.00;;;;;;5012152;28;20409;-65
2020/12/14 05:12:17;;;;;;;4.18;1.80;;;7.50;1.00;;;;;;5011836;28;20430;-65
2020/12/14 05:14:43;;;;;;;4.30;1.70;;;7.50;1.00;;;;;;5011976;28;20496;-65
2020/12/14 05:17:21;;;;;;;1.60;1.50;;;7.50;1.00;;;;;;5010402;28;20420;-65
2020/12/14 05:19:47;;;;;;;1.85;1.40;;;7.50;1.00;;;;;;5011860;28;20881;-65
2020/12/14 05:22:16;;;;;;;1.73;1.30;;;7.50;1.00;;;;;;5011897;28;20847;-65
2020/12/14 05:24:50;;;;;;;2.17;1.65;;;7.50;1.00;;;;;;5010727;28;20439;-68
2020/12/14 05:27:30;;;;;;;2.13;1.70;;;7.50;1.00;;;;;;5011522;28;20444;-66
2020/12/14 05:29:57;;;;;;;2.47;1.60;;;7.50;1.00;;;;;;5011483;28;20450;-66
2020/12/14 05:32:24;;;;;;;2.08;1.60;;;7.50;1.00;;;;;;5011968;28;20816;-65
2020/12/14 05:34:50;;;;;;;3.33;1.70;;;7.40;1.00;;;;;;5011645;28;20409;-65
2020/12/14 05:37:17;;;;;;;2.67;1.77;;;7.40;1.00;;;;;;5011423;28;20463;-65
2020/12/14 05:39:44;;;;;;;4.80;1.65;;;7.30;1.00;;;;;;5011433;28;20425;-65
2020/12/14 05:42:13;;;;;;;2.20;1.50;;;7.30;1.00;;;;;;5011484;28;20793;-65
2020/12/14 05:44:40;;;;;;;5.80;1.58;;;7.20;1.00;;;;;;5010955;28;20466;-64
2020/12/14 05:47:22;;;;;;;4.30;1.50;;;7.20;1.00;;;;;;5011720;28;20408;-65
2020/12/14 05:49:49;;;;;;;3.45;1.52;;;7.30;1.00;;;;;;5012808;28;20415;-66
2020/12/14 05:52:19;;;;;;;4.90;2.00;;;7.20;1.00;;;;;;5017173;28;20447;-65
2020/12/14 05:54:51;;;;;;;3.85;2.00;;;7.10;1.00;;;;;;5018477;28;20418;-65
2020/12/14 05:57:28;;;;;;;3.10;1.50;;;7.10;1.00;;;;;;5013220;28;20413;-65
2020/12/14 05:59:58;;;;;;;1.90;1.70;;;7.20;1.00;;;;;;5014516;28;20466;-66
2020/12/14 06:02:25;;;;;;;2.45;2.05;;;7.20;1.00;;;;;;5013524;28;20901;-65
2020/12/14 06:04:55;;;;;;;2.20;1.67;;;7.20;1.00;;;;;;5014231;28;20419;-65
2020/12/14 06:07:25;;;;;;;2.87;1.70;;;7.20;1.00;;;;;;5016052;28;20416;-66
2020/12/14 06:10:02;;;;;;;2.53;1.77;;;7.30;1.00;;;;;;5019181;28;20497;-66
2020/12/14 06:12:30;;;;;;;2.40;1.50;;;7.20;1.00;;;;;;5022449;28;20507;-66
2020/12/14 06:14:59;;;;;;;2.30;1.60;;;7.20;1.00;;;;;;5016482;28;20488;-65
2020/12/14 06:17:27;;;;;;;2.67;1.75;;;7.40;1.00;;;;;;5011353;28;20416;-64
2020/12/14 06:20:01;;;;;;;2.60;1.90;;;7.40;1.00;;;;;;5011302;28;20486;-64
2020/12/14 06:22:29;;;;;;;2.95;2.00;;;7.50;1.00;;;;;;4992348;28;20414;-67
2020/12/14 06:24:58;;;;;;;2.10;1.50;;;7.40;1.00;;;;;;4991207;28;20531;-66
2020/12/14 06:27:25;;;;;;;2.85;1.95;;;7.30;1.00;;;;;;4991956;28;20489;-67
2020/12/14 06:29:52;;;;;;;2.83;2.00;;;7.40;1.00;;;;;;4999395;28;20452;-66
2020/12/14 06:32:36;;;;;;;2.40;1.50;;;7.40;1.00;;;;;;5011214;28;20861;-66
2020/12/14 06:35:04;;;;;;;2.17;1.67;;;7.50;1.00;;;;;;5010835;28;20416;-66
2020/12/14 06:37:53;;;;;;;3.38;1.60;;;7.50;1.00;;;;;;5011033;28;20947;-64
2020/12/14 06:40:20;;;;;;;2.10;1.67;;;7.50;1.00;;;;;;5011267;28;20435;-65
2020/12/14 06:42:46;;;;;;;1.70;1.60;;;7.50;1.00;;;;;;5011262;28;20417;-65
2020/12/14 06:45:18;;;;;;;2.20;1.58;;;7.40;1.00;;;;;;5012949;28;20413;-65
2020/12/14 06:47:52;;;;;;;2.65;1.80;;;7.30;1.00;;;;;;5012597;28;20446;-65
2020/12/14 06:50:24;;;;;;;1.80;1.70;;;7.30;1.00;;;;;;5011225;28;20462;-66
2020/12/14 06:52:50;;;;;;;4.00;1.80;;;7.30;1.00;;;;;;5011627;28;20424;-65
2020/12/14 06:55:27;;;;;;;4.38;1.80;;;7.20;1.00;;;;;;5012422;28;20832;-65
2020/12/14 06:57:53;;;;;;;3.03;1.60;;;7.40;1.00;;;;;;5016297;28;20416;-64
2020/12/14 07:00:30;;;;;;;3.47;2.20;;;7.30;1.00;;;;;;5014691;28;20432;-66
2020/12/14 07:02:57;;;;;;;2.72;2.10;;;7.20;1.00;;;;;;5014210;28;20440;-65
2020/12/14 07:05:34;;;;;;;3.08;1.63;;;7.20;1.00;;;;;;5014479;28;20423;-65
2020/12/14 07:08:00;;;;;;;2.33;1.80;;;7.30;1.00;;;;;;5014310;28;20762;-66
2020/12/14 07:10:28;;;;;;;3.15;1.80;;;7.20;1.00;;;;;;5014517;28;20405;-66
2020/12/14 07:12:55;;;;;;;2.17;1.80;;;7.30;1.00;;;;;;5013814;28;20421;-66
2020/12/14 07:15:30;;;;;;;3.60;1.90;;;7.40;1.00;;;;;;5013952;28;20420;-66
2020/12/14 07:18:05;;;;;;;2.63;1.80;;;7.40;1.00;;;;;;5014377;28;20955;-66
2020/12/14 07:20:31;;;;;;;2.70;1.80;;;7.40;1.00;;;;;;5014705;28;20433;-66
2020/12/14 07:23:05;;;;;;;2.88;1.83;;;7.50;1.00;;;;;;5014007;28;20948;-66
2020/12/14 07:25:33;;;;;;;3.10;2.10;;;7.50;1.00;;;;;;5013892;28;20458;-66
2020/12/14 07:28:00;;;;;;;3.40;1.90;;;7.50;1.00;;;;;;5014141;28;20418;-67
2020/12/14 07:30:26;;;;;;;2.30;1.90;;;7.60;1.00;;;;;;5014205;28;20405;-66
2020/12/14 07:32:52;;;;;;;3.33;1.95;;;7.60;1.00;;;;;;5013901;28;20413;-65
2020/12/14 07:35:18;;;;;;;2.33;1.80;;;7.70;1.00;;;;;;5014391;28;20482;-65
2020/12/14 07:37:44;;;;;;;2.67;1.80;;;7.60;1.00;;;;;;5013771;28;20829;-63
2020/12/14 07:40:12;;;;;;;3.55;1.95;;;7.70;1.00;;;;;;5013686;28;20492;-65
2020/12/14 07:42:44;;;;;;;2.90;1.80;;;7.70;1.00;;;;;;5013848;28;20409;-65
2020/12/14 07:45:11;;;;;;;3.40;1.92;;;7.70;1.00;;;;;;5013682;28;20504;-65
2020/12/14 07:47:37;;;;;;;2.47;1.90;;;7.80;1.00;;;;;;5013825;28;20994;-65
2020/12/14 07:50:08;;;;;;;3.33;1.87;;;7.90;1.00;;;;;;5014012;28;20416;-65
2020/12/14 07:52:35;;;;;;;2.73;2.10;;;8.00;1.00;;;;;;5013809;28;20877;-65
2020/12/14 07:55:01;;;;;;;4.40;2.45;;;8.00;1.00;;;;;;5013367;28;20417;-65
2020/12/14 07:57:32;;;;;;;2.72;2.00;;;8.00;1.00;;;;;;5018632;28;20413;-65
2020/12/14 07:59:58;;;;;;;2.70;2.28;;;8.10;1.00;;;;;;5014154;28;20432;-66
2020/12/14 08:02:25;;;;;;;4.03;1.87;;;8.00;1.00;;;;;;5013877;28;20413;-66
2020/12/14 08:04:59;;;;;;;3.28;2.42;;;8.00;1.00;;;;;;5013663;28;20420;-66
2020/12/14 08:07:28;;;;;;;2.95;2.08;;;8.00;1.00;;;;;;5013142;28;20417;-66
2020/12/14 08:09:55;;;;;;;2.85;2.20;;;8.00;1.00;;;;;;5013422;28;20471;-66
2020/12/14 08:12:21;;;;;;;2.00;1.80;;;8.10;1.00;;;;;;5013540;28;20413;-66
2020/12/14 08:14:48;;;;;;;3.30;2.20;;;8.10;1.00;;;;;;5013737;28;20424;-65
2020/12/14 08:17:15;;;;;;;2.40;2.00;;;8.10;1.00;;;;;;5014000;28;20467;-67
2020/12/14 08:19:44;;;;;;;3.63;2.58;;;8.10;1.00;;;;;;5013443;28;20428;-66
2020/12/14 08:22:12;;;;;;;3.40;2.47;;;8.10;1.00;;;;;;5013342;28;20417;-65
2020/12/14 08:24:41;;;;;;;3.45;2.30;;;8.00;1.00;;;;;;5013555;28;20824;-65
2020/12/14 08:27:09;;;;;;;3.60;2.40;;;7.80;1.00;;;;;;5013024;28;20447;-65
2020/12/14 08:29:36;;;;;;;3.42;2.90;;;7.60;1.00;;;;;;5013104;28;20456;-65
2020/12/14 08:32:04;;;;;;;4.20;2.63;;;7.60;1.00;;;;;;5012575;28;20422;-65
2020/12/14 08:34:32;;;;;;;3.03;2.42;;;7.60;1.00;;;;;;5012828;28;20420;-64
2020/12/14 08:36:58;;;;;;;2.90;2.50;;;7.50;1.00;;;;;;5012990;28;21004;-67
2020/12/14 08:39:24;;;;;;;4.00;2.60;;;7.60;99.90;;;;;;5012440;28;20885;-66
2020/12/14 08:42:06;;;;;;;3.38;2.70;;;7.60;99.90;;;;;;5012316;28;21295;-64
2020/12/14 08:44:33;;;;;;;2.95;2.65;;;7.50;99.90;;;;;;5013302;28;20420;-65
2020/12/14 08:46:59;;;;;;;3.17;2.72;;;7.50;99.90;;;;;;5012796;28;20427;-65
2020/12/14 08:49:27;;;;;;;3.45;2.80;;;7.40;99.90;;;;;;5012985;28;20421;-66
2020/12/14 08:51:53;;;;;;;4.00;2.72;;;7.40;1.00;;;;;;5012381;28;20412;-65
2020/12/14 08:54:20;;;;;;;4.00;2.40;;;7.50;1.00;;;;;;5012473;28;20467;-68
2020/12/14 08:56:46;;;;;;;4.65;2.80;;;7.60;1.00;;;;;;5013120;28;20408;-63
2020/12/14 08:59:14;;;;;;;6.03;2.88;;;7.60;1.00;;;;;;5012247;28;20410;-66
2020/12/14 09:01:40;;;;;;;5.20;2.70;;;7.60;1.00;;;;;;5011982;28;20432;-66
2020/12/14 09:04:06;;;;;;;3.20;2.47;;;7.60;1.00;;;;;;5012681;28;20417;-65
2020/12/14 09:06:35;;;;;;;3.50;2.60;;;7.60;1.00;;;;;;5012502;28;20416;-64
2020/12/14 09:09:06;;;;;;;3.50;2.78;;;7.70;1.00;;;;;;5012530;28;20417;-65
2020/12/14 09:11:34;;;;;;;3.13;2.83;;;7.80;1.00;;;;;;5012273;28;20413;-65
2020/12/14 09:14:02;;;;;;;4.82;2.50;;;7.80;1.00;;;;;;5012112;28;20428;-66
2020/12/14 09:16:29;;;;;;;3.90;2.70;;;7.90;1.00;;;;;;5012191;28;20936;-65
2020/12/14 09:18:56;;;;;;;3.50;2.42;;;7.90;1.00;;;;;;5011906;28;20421;-64
2020/12/14 09:21:22;;;;;;;3.63;2.65;;;7.90;1.00;;;;;;5012195;28;20432;-66
2020/12/14 09:24:09;;;;;;;2.63;2.25;;;7.90;99.90;;;;;;5012684;28;20425;-65
2020/12/14 09:26:35;;;;;;;3.38;2.53;;;7.90;1.00;;;;;;5013013;28;20893;-64
2020/12/14 09:29:01;;;;;;;4.65;2.60;;;7.90;1.00;;;;;;5013037;28;20829;-64
2020/12/14 09:31:27;;;;;;;3.17;2.63;;;7.90;1.00;;;;;;5013223;28;20458;-66
2020/12/14 09:33:53;;;;;;;2.95;2.65;;;8.00;1.00;;;;;;5013817;28;20793;-66
2020/12/14 09:36:19;;;;;;;2.92;2.50;;;8.00;1.00;;;;;;5012200;28;20417;-65
2020/12/14 09:38:46;;;;;;;3.35;2.75;;;8.00;1.00;;;;;;5012386;28;20420;-65
2020/12/14 09:41:13;;;;;;;3.00;2.70;;;8.00;1.00;;;;;;5012577;28;20574;-65
2020/12/14 09:43:41;;;;;;;2.78;2.50;;;8.10;1.00;;;;;;5012440;28;20417;-65
2020/12/14 09:46:07;;;;;;;3.28;2.40;;;8.20;1.00;;;;;;5012448;28;20463;-65
2020/12/14 09:48:33;;;;;;;4.38;2.78;;;8.20;1.00;;;;;;5012423;28;20417;-65
2020/12/14 09:50:59;;;;;;;3.40;2.75;;;8.40;1.00;;;;;;5011813;28;20952;-66
2020/12/14 09:53:26;;;;;;;3.13;2.50;;;8.50;99.90;;;;;;5011905;28;20454;-66
2020/12/14 09:55:52;;;;;;;2.78;2.50;;;8.60;99.90;;;;;;5011954;28;20417;-62
2020/12/14 09:58:19;;;;;;;2.40;2.20;;;8.50;1.00;;;;;;5012152;28;20467;-66
2020/12/14 10:00:46;;;;;;;2.78;2.40;;;8.60;1.00;;;;;;5011994;28;20482;-64
2020/12/14 10:03:12;;;;;;;2.43;2.20;;;8.50;99.90;;;;;;5011679;28;20412;-64
2020/12/14 10:05:43;;;;;;;2.58;2.33;;;8.60;1.00;;;;;;5011662;28;20428;-65
2020/12/14 10:08:09;;;;;;;3.55;2.30;;;8.60;1.00;;;;;;5011441;28;20413;-67
2020/12/14 10:10:35;;;;;;;3.75;2.70;;;8.60;1.00;;;;;;5012004;28;20409;-65
2020/12/14 10:13:01;;;;;;;3.83;3.10;;;8.60;1.00;;;;;;5011505;28;20409;-64
2020/12/14 10:15:28;;;;;;;3.08;2.10;;;8.60;1.00;;;;;;5011786;28;20504;-64
2020/12/14 10:17:54;;;;;;;5.20;2.83;;;8.50;1.00;;;;;;5011599;28;20521;-64
2020/12/14 10:20:20;;;;;;;4.40;3.10;;;8.40;1.00;;;;;;5011572;28;20487;-65
2020/12/14 10:22:46;;;;;;;3.03;2.30;;;8.40;1.00;;;;;;5011814;28;20425;-65
2020/12/14 10:25:12;;;;;;;4.05;2.70;;;8.30;1.00;;;;;;5013537;28;20475;-65
2020/12/14 10:27:39;;;;;;;3.93;2.70;;;8.30;1.00;;;;;;5011678;28;20460;-64
2020/12/14 10:30:05;;;;;;;3.85;2.80;;;8.30;1.00;;;;;;5011450;28;20416;-63
2020/12/14 10:32:32;;;;;;;3.90;2.80;;;8.30;1.00;;;;;;5014526;28;20424;-64
2020/12/14 10:34:58;;;;;;;5.90;3.10;;;8.30;13.20;;;;;;5015138;28;20417;-63
2020/12/14 10:37:24;;;;;;;3.63;2.90;;;8.20;48.20;;;;;;5015345;28;20412;-64
2020/12/14 10:39:50;;;;;;;4.50;2.67;;;8.30;92.00;;;;;;5020202;28;20451;-63
2020/12/14 10:42:16;;;;;;;2.90;2.60;;;8.40;74.20;;;;;;5015224;28;20458;-63
2020/12/14 10:44:42;;;;;;;6.38;3.00;;;8.40;99.90;;;;;;5015643;28;20471;-62
2020/12/14 10:47:08;;;;;;;4.30;2.80;;;8.60;43.60;;;;;;5016005;28;20417;-62
2020/12/14 10:49:35;;;;;;;4.25;2.85;;;8.60;1.00;;;;;;5020429;28;20889;-63
2020/12/14 10:52:02;;;;;;;3.00;2.53;;;8.50;1.00;;;;;;5023101;28;20469;-64
2020/12/14 10:54:28;;;;;;;3.55;2.50;;;8.50;1.00;;;;;;5023706;28;20424;-61
2020/12/14 10:56:55;;;;;;;2.97;2.78;;;8.50;1.00;;;;;;5015420;28;20471;-62
2020/12/14 10:59:21;;;;;;;4.97;2.75;;;8.50;1.00;;;;;;5015199;28;20412;-62
2020/12/14 11:01:49;;;;;;;3.88;2.90;;;8.60;1.00;;;;;;5015466;28;20433;-62
2020/12/14 11:04:16;;;;;;;2.97;2.65;;;8.70;1.00;;;;;;5016381;28;20442;-62
2020/12/14 11:06:43;;;;;;;3.03;2.50;;;8.70;1.00;;;;;;5031347;28;20417;-63
2020/12/14 11:09:09;;;;;;;4.85;3.15;;;8.70;1.00;;;;;;5028391;28;20416;-64
2020/12/14 11:11:35;;;;;;;4.20;2.80;;;8.70;1.00;;;;;;5028261;28;20413;-64
2020/12/14 11:14:02;;;;;;;3.70;2.90;;;8.80;1.00;;;;;;5017548;28;20420;-63
2020/12/14 11:16:28;;;;;;;4.60;3.60;;;8.70;1.00;;;;;;5015336;28;20417;-64
2020/12/14 11:18:56;;;;;;;3.40;2.97;;;8.70;1.00;;;;;;5014572;28;20420;-64
2020/12/14 11:21:22;;;;;;;6.88;3.55;;;8.60;1.00;;;;;;5014490;28;20435;-64
2020/12/14 11:23:49;;;;;;;4.30;3.30;;;8.60;1.00;;;;;;5014164;28;20413;-64
2020/12/14 11:26:15;;;;;;;3.15;2.85;;;8.50;1.00;;;;;;5014685;28;20420;-64
2020/12/14 11:28:41;;;;;;;5.53;3.67;;;8.50;1.00;;;;;;5014807;28;20405;-65
2020/12/14 11:31:08;;;;;;;3.85;3.20;;;8.50;35.20;;;;;;5014294;28;20409;-65
2020/12/14 11:33:34;;;;;;;5.33;3.30;;;8.60;48.70;;;;;;5013963;28;20577;-65
2020/12/14 11:36:00;;;;;;;6.30;3.72;;;8.60;69.10;;;;;;5014226;28;20491;-64
2020/12/14 11:38:26;;;;;;;4.68;3.67;;;8.60;43.40;;;;;;5014318;28;20413;-66
2020/12/14 11:40:53;;;;;;;3.90;3.00;;;8.50;63.30;;;;;;5013981;28;20432;-65
2020/12/14 11:43:19;;;;;;;3.85;2.75;;;8.50;99.90;;;;;;5012660;28;20420;-66
2020/12/14 11:45:46;;;;;;;4.60;2.90;;;8.40;99.90;;;;;;5013810;28;20420;-65
2020/12/14 11:48:12;;;;;;;5.72;3.03;;;8.50;99.90;;;;;;5013769;28;20412;-64
2020/12/14 11:50:38;;;;;;;4.10;3.30;;;8.50;99.90;;;;;;5013825;28;20408;-65
2020/12/14 11:53:04;;;;;;;3.20;2.80;;;8.50;97.20;;;;;;5013582;28;20533;-66
2020/12/14 11:55:31;;;;;;;4.82;3.30;;;8.60;99.90;;;;;;5013893;28;20956;-67
2020/12/14 11:57:58;;;;;;;5.30;2.90;;;8.60;98.40;;;;;;5014318;28;20885;-67
2020/12/14 12:00:24;;;;;;;4.43;3.17;;;8.80;97.90;;;;;;5014099;28;20425;-65
2020/12/14 12:02:50;;;;;;;3.67;2.80;;;8.80;57.30;;;;;;5013792;28;20479;-66
2020/12/14 12:05:16;;;;;;;3.97;2.90;;;9.00;17.10;;;;;;5013760;28;20552;-65
2020/12/14 12:07:43;;;;;;;2.97;2.70;;;9.00;1.00;;;;;;5013780;28;20448;-66
2020/12/14 12:10:09;;;;;;;2.30;2.10;;;9.10;1.00;;;;;;5014102;28;20901;-66
2020/12/14 12:12:37;;;;;;;4.40;2.90;;;9.20;1.00;;;;;;5013902;28;20459;-66
2020/12/14 12:15:04;;;;;;;5.33;2.90;;;9.20;99.90;;;;;;5012958;28;20417;-66
2020/12/14 12:17:30;;;;;;;4.13;3.10;;;9.30;99.90;;;;;;5013220;28;20471;-65
2020/12/14 12:19:56;;;;;;;3.95;2.65;;;9.30;99.90;;;;;;5013472;28;20413;-65
2020/12/14 12:22:22;;;;;;;3.58;2.30;;;9.30;99.90;;;;;;5013521;28;20840;-64
2020/12/14 12:24:48;;;;;;;4.40;2.60;;;9.30;99.90;;;;;;5013178;28;20417;-67
2020/12/14 12:27:15;;;;;;;3.30;2.90;;;9.30;99.90;;;;;;5013613;28;20416;-67
2020/12/14 12:29:41;;;;;;;3.67;2.58;;;9.30;99.90;;;;;;5012786;28;20471;-64
2020/12/14 12:32:08;;;;;;;3.20;2.50;;;9.30;99.90;;;;;;5012737;28;20944;-67
2020/12/14 12:34:35;;;;;;;3.67;2.50;;;9.40;99.90;;;;;;5013400;28;20413;-67
2020/12/14 12:37:02;;;;;;;2.97;2.30;;;9.50;99.90;;;;;;5013190;28;20467;-66
2020/12/14 12:39:29;;;;;;;3.50;2.60;;;9.70;99.90;;;;;;5013838;28;20466;-66
2020/12/14 12:41:56;;;;;;;2.30;2.10;;;9.80;99.90;;;;;;5012648;28;20428;-66
2020/12/14 12:44:23;;;;;;;2.42;2.00;;;10.00;99.90;;;;;;5012959;28;20416;-68
2020/12/14 12:46:50;;;;;;;2.72;2.30;;;10.00;99.90;;;;;;5013722;28;20421;-67
2020/12/14 12:49:17;;;;;;;4.10;2.30;;;10.10;80.00;;;;;;5013297;28;20532;-68
2020/12/14 12:51:44;;;;;;;2.70;2.30;;;10.20;38.80;;;;;;5013201;28;20417;-66
2020/12/14 12:54:11;;;;;;;2.75;2.55;;;10.20;4.00;;;;;;5012834;28;20447;-66
2020/12/14 12:56:37;;;;;;;2.50;2.30;;;10.30;1.00;;;;;;5013595;28;20421;-65
2020/12/14 12:59:03;;;;;;;2.13;1.92;;;10.30;1.00;;;;;;5015899;28;20543;-64
2020/12/14 13:01:29;;;;;;;3.33;1.70;;;10.30;1.00;;;;;;5012400;28;20424;-66
2020/12/14 13:03:55;;;;;;;2.10;1.90;;;10.10;1.00;;;;;;5014717;28;20475;-66